Time;durP1;ratioP1;P1;durP2;ratioP2;P2;SDS_P1;SDS_P2;PMS_P1;PMS_P2;Temp;Humidity;BMP_temperature;BMP_pressure;BME280_temperature;BME280_humidity;BME280_pressure;Samples;Min_cycle;Max_cycle;Signal;HPM_P1;HPM_P2
2021/12/21 00:00:13;;;;;;;62.22;53.88;;;2.10;99.90;;;;;;4161576;28;20045;-46
2021/12/21 00:02:15;;;;;;;73.68;61.15;;;2.00;99.90;;;;;;4159341;28;20041;-47
2021/12/21 00:04:18;;;;;;;94.60;77.43;;;2.10;99.90;;;;;;4159493;28;20033;-45
2021/12/21 00:06:20;;;;;;;90.13;71.30;;;2.00;99.90;;;;;;4156593;28;20037;-46
2021/12/21 00:08:23;;;;;;;73.22;57.25;;;2.00;99.90;;;;;;4153344;28;20084;-47
2021/12/21 00:10:47;;;;;;;77.60;57.50;;;2.00;99.90;;;;;;4158248;28;20041;-48
2021/12/21 00:15:02;;;;;;;72.97;58.58;;;2.30;99.90;;;;;;4157877;28;20516;-49
2021/12/21 00:23:35;;;;;;;65.85;56.70;;;2.30;99.90;;;;;;4160170;28;20036;-50
2021/12/21 00:25:37;;;;;;;58.90;52.55;;;2.20;99.90;;;;;;4146420;28;20048;-46
2021/12/21 00:27:39;;;;;;;55.13;46.50;;;2.20;99.90;;;;;;4159978;28;20044;-47
2021/12/21 00:29:41;;;;;;;51.72;46.20;;;2.30;99.90;;;;;;4161404;28;20663;-49
2021/12/21 00:31:43;;;;;;;51.53;46.35;;;2.30;99.90;;;;;;4159292;28;20394;-49
2021/12/21 00:33:47;;;;;;;48.05;42.95;;;2.20;99.90;;;;;;4154732;28;20053;-48
2021/12/21 00:35:49;;;;;;;46.33;41.38;;;2.30;99.90;;;;;;4160026;28;20091;-48
2021/12/21 00:37:51;;;;;;;46.78;38.13;;;2.30;99.90;;;;;;4161349;28;20045;-50
2021/12/21 00:39:53;;;;;;;40.00;31.52;;;2.30;99.90;;;;;;4156766;28;20034;-49
2021/12/21 00:41:55;;;;;;;37.00;32.92;;;2.30;99.90;;;;;;4145094;28;20045;-47
2021/12/21 00:43:57;;;;;;;37.58;34.10;;;2.30;99.90;;;;;;4157659;28;20041;-49
2021/12/21 00:46:00;;;;;;;34.85;31.40;;;2.30;99.90;;;;;;4145541;28;20030;-46
2021/12/21 00:48:02;;;;;;;32.97;29.90;;;2.30;99.90;;;;;;4157908;28;20457;-46
2021/12/21 00:50:07;;;;;;;36.35;32.60;;;2.30;99.90;;;;;;4161189;28;20037;-49
2021/12/21 00:52:14;;;;;;;36.28;33.13;;;2.40;99.90;;;;;;4159836;28;20045;-48
2021/12/21 00:54:17;;;;;;;35.90;32.55;;;2.40;99.90;;;;;;4161283;28;20042;-50
2021/12/21 00:56:19;;;;;;;30.77;28.13;;;2.40;99.90;;;;;;4159369;28;20438;-47
2021/12/21 00:58:21;;;;;;;31.67;28.52;;;2.40;99.90;;;;;;4161231;28;20069;-49
2021/12/21 01:00:24;;;;;;;29.80;27.15;;;2.50;99.90;;;;;;4155977;28;20038;-46
2021/12/21 01:02:26;;;;;;;34.42;30.77;;;2.50;99.90;;;;;;4161192;28;20057;-49
2021/12/21 01:04:35;;;;;;;38.58;34.55;;;2.50;99.90;;;;;;4160183;28;20437;-46
2021/12/21 01:06:41;;;;;;;37.58;33.42;;;2.40;99.90;;;;;;4160638;28;20041;-48
2021/12/21 01:09:11;;;;;;;37.05;30.50;;;2.50;99.90;;;;;;4156984;28;20037;-50
2021/12/21 01:11:19;;;;;;;35.05;29.80;;;2.50;99.90;;;;;;4144360;28;20050;-50
2021/12/21 01:20:13;;;;;;;33.03;29.90;;;2.50;99.90;;;;;;4159117;28;20069;-48
2021/12/21 01:22:24;;;;;;;40.22;29.35;;;2.50;99.90;;;;;;4165830;28;20045;-46
2021/12/21 01:24:40;;;;;;;31.05;27.58;;;2.50;99.90;;;;;;4167208;28;20526;-49
2021/12/21 01:33:14;;;;;;;76.60;42.55;;;2.50;99.90;;;;;;4153800;28;20490;-47
2021/12/21 01:41:52;;;;;;;69.22;48.80;;;2.40;99.90;;;;;;4161450;28;20811;-48
2021/12/21 01:44:09;;;;;;;71.00;47.17;;;2.40;99.90;;;;;;4156063;28;20042;-49
2021/12/21 01:51:10;;;;;;;52.22;45.88;;;2.20;99.90;;;;;;4159330;28;20053;-47
2021/12/21 01:53:13;;;;;;;43.60;37.85;;;2.20;99.90;;;;;;4151804;28;20472;-48
2021/12/21 01:55:15;;;;;;;45.10;40.40;;;2.30;99.90;;;;;;4164093;28;20045;-48
2021/12/21 01:57:18;;;;;;;48.40;43.45;;;2.30;99.90;;;;;;4160487;28;20036;-50
2021/12/21 01:59:20;;;;;;;45.95;40.83;;;2.30;99.90;;;;;;4161528;28;20049;-47
2021/12/21 02:01:25;;;;;;;52.25;46.72;;;2.30;99.90;;;;;;4161081;28;20033;-50
2021/12/21 02:03:27;;;;;;;54.17;49.28;;;2.40;99.90;;;;;;4161997;28;20053;-47
2021/12/21 02:05:29;;;;;;;;;;;2.40;99.90;;;;;;4160795;28;20066;-47
2021/12/21 02:07:31;;;;;;;49.72;44.55;;;2.30;99.90;;;;;;4163800;28;19975;-50
2021/12/21 02:09:37;;;;;;;53.17;48.15;;;2.30;99.90;;;;;;4156575;28;20663;-50
2021/12/21 02:11:39;;;;;;;52.53;47.60;;;2.30;99.90;;;;;;4163620;28;20041;-48
2021/12/21 02:13:49;;;;;;;49.22;44.30;;;2.30;99.90;;;;;;4160327;28;20124;-47
2021/12/21 02:15:51;;;;;;;41.15;36.80;;;2.40;99.90;;;;;;4162026;28;20033;-48
2021/12/21 02:20:22;;;;;;;35.03;31.52;;;2.40;99.90;;;;;;4162533;28;20064;-48
2021/12/21 02:22:27;;;;;;;40.55;32.58;;;2.50;99.90;;;;;;4159997;28;20084;-47
2021/12/21 02:24:38;;;;;;;36.38;32.03;;;2.50;99.90;;;;;;4164200;28;20067;-47
2021/12/21 02:26:49;;;;;;;50.72;40.88;;;2.50;99.90;;;;;;4154210;28;20083;-49
2021/12/21 02:29:14;;;;;;;54.45;48.63;;;2.40;99.90;;;;;;4162491;28;20042;-49
2021/12/21 02:31:17;;;;;;;59.15;52.85;;;2.20;99.90;;;;;;4159430;28;20037;-48
2021/12/21 02:33:20;;;;;;;60.63;54.00;;;2.20;99.90;;;;;;4162951;28;20041;-48
2021/12/21 02:35:22;;;;;;;60.38;53.92;;;2.10;99.90;;;;;;4160526;28;20038;-48
2021/12/21 02:37:24;;;;;;;63.38;56.65;;;2.00;99.90;;;;;;4161857;28;20504;-48
2021/12/21 02:39:27;;;;;;;57.83;52.28;;;1.90;99.90;;;;;;4161071;28;20033;-50
2021/12/21 02:41:29;;;;;;;60.38;54.47;;;1.80;99.90;;;;;;4152837;28;20581;-47
2021/12/21 02:43:34;;;;;;;56.40;51.08;;;1.80;99.90;;;;;;4153211;28;20698;-46
2021/12/21 02:45:38;;;;;;;58.20;52.45;;;1.90;99.90;;;;;;4163403;28;20041;-49
2021/12/21 02:47:40;;;;;;;53.63;48.63;;;2.00;99.90;;;;;;4158988;28;20037;-49
2021/12/21 02:49:43;;;;;;;47.00;42.80;;;2.10;99.90;;;;;;4163808;28;20124;-50
2021/12/21 02:51:47;;;;;;;40.47;37.08;;;2.20;99.90;;;;;;4154235;28;20041;-47
2021/12/21 02:53:49;;;;;;;41.92;37.90;;;2.40;99.90;;;;;;4163531;28;20088;-48
2021/12/21 02:55:51;;;;;;;39.42;35.88;;;2.50;99.90;;;;;;4159556;28;20099;-46
2021/12/21 02:57:55;;;;;;;40.03;36.03;;;2.50;99.90;;;;;;4171551;28;20029;-49
2021/12/21 03:00:01;;;;;;;42.38;37.97;;;2.50;99.90;;;;;;4168657;28;20048;-50
2021/12/21 03:02:03;;;;;;;40.38;36.30;;;2.50;99.90;;;;;;4162741;28;20037;-48
2021/12/21 03:04:07;;;;;;;43.28;39.10;;;2.50;99.90;;;;;;4158440;28;20044;-47
2021/12/21 03:06:23;;;;;;;47.22;42.83;;;2.50;99.90;;;;;;4159922;28;20572;-48
2021/12/21 03:08:37;;;;;;;51.55;46.40;;;2.40;99.90;;;;;;4157580;28;20041;-51
2021/12/21 03:10:47;;;;;;;48.08;43.65;;;2.30;99.90;;;;;;4150191;28;20050;-50
2021/12/21 03:14:53;;;;;;;54.03;48.42;;;2.20;99.90;;;;;;4161331;28;20088;-48
2021/12/21 03:16:55;;;;;;;50.17;45.30;;;2.20;99.90;;;;;;4159939;28;20107;-49
2021/12/21 03:18:59;;;;;;;46.47;41.70;;;2.20;99.90;;;;;;4159400;28;20045;-50
2021/12/21 03:21:01;;;;;;;47.55;42.17;;;2.10;99.90;;;;;;4157878;28;20096;-47
2021/12/21 03:23:03;;;;;;;44.92;40.35;;;2.20;99.90;;;;;;4162075;28;20042;-50
2021/12/21 03:25:06;;;;;;;42.08;36.72;;;2.10;99.90;;;;;;4161464;28;20037;-47
2021/12/21 03:27:08;;;;;;;45.95;38.50;;;2.20;99.90;;;;;;4160499;28;20045;-47
2021/12/21 03:29:11;;;;;;;41.80;37.38;;;2.20;99.90;;;;;;4154882;28;20060;-50
2021/12/21 03:31:14;;;;;;;38.63;33.70;;;2.30;99.90;;;;;;4162155;28;20773;-50
2021/12/21 03:33:16;;;;;;;36.17;32.83;;;2.40;99.90;;;;;;4158645;28;20041;-49
2021/12/21 03:35:18;;;;;;;46.25;41.78;;;2.40;99.90;;;;;;4162019;28;20056;-50
2021/12/21 03:37:20;;;;;;;52.15;47.78;;;2.40;99.90;;;;;;4160020;28;20464;-50
2021/12/21 03:39:22;;;;;;;55.70;50.47;;;2.40;99.90;;;;;;4151614;28;20046;-49
2021/12/21 03:41:26;;;;;;;55.53;50.47;;;2.30;99.90;;;;;;4157641;28;20087;-48
2021/12/21 03:43:30;;;;;;;56.85;51.63;;;2.30;99.90;;;;;;4161382;28;20046;-47
2021/12/21 03:45:37;;;;;;;55.85;50.80;;;2.20;99.90;;;;;;4160214;28;20033;-49
2021/12/21 03:47:39;;;;;;;53.60;49.47;;;2.10;99.90;;;;;;4166985;28;20045;-48
2021/12/21 03:51:44;;;;;;;47.95;44.33;;;2.30;99.90;;;;;;4161161;28;20141;-48
2021/12/21 03:53:48;;;;;;;46.63;42.63;;;2.30;99.90;;;;;;4150560;28;20052;-49
2021/12/21 03:56:01;;;;;;;48.10;44.28;;;2.30;99.90;;;;;;4162334;28;20041;-48
2021/12/21 03:58:03;;;;;;;44.53;40.53;;;2.30;99.90;;;;;;4158678;28;20041;-50
2021/12/21 04:00:08;;;;;;;41.40;38.30;;;2.40;99.90;;;;;;4161855;28;20049;-47
2021/12/21 04:02:12;;;;;;;40.92;37.60;;;2.40;99.90;;;;;;4153081;28;20652;-51
2021/12/21 04:04:19;;;;;;;43.22;39.80;;;2.50;99.90;;;;;;4153090;28;20136;-47
2021/12/21 04:06:21;;;;;;;48.63;44.88;;;2.50;99.90;;;;;;4152171;28;20030;-47
2021/12/21 04:08:23;;;;;;;47.30;43.20;;;2.50;99.90;;;;;;4161403;28;20033;-50
2021/12/21 04:10:25;;;;;;;50.13;45.65;;;2.50;99.90;;;;;;4159928;28;20036;-48
2021/12/21 04:12:28;;;;;;;44.45;41.20;;;2.50;99.90;;;;;;4160326;28;20079;-49
2021/12/21 04:14:32;;;;;;;47.33;42.97;;;2.50;99.90;;;;;;4154057;28;20037;-49
2021/12/21 04:16:34;;;;;;;42.63;39.15;;;2.50;99.90;;;;;;4158491;28;20065;-49
2021/12/21 04:18:38;;;;;;;42.10;38.30;;;2.50;99.90;;;;;;4149492;28;20041;-49
2021/12/21 04:20:41;;;;;;;39.88;36.42;;;2.50;99.90;;;;;;4159433;28;20045;-47
2021/12/21 04:22:43;;;;;;;41.75;37.97;;;2.50;99.90;;;;;;4154420;28;20079;-48
2021/12/21 04:24:45;;;;;;;41.22;37.38;;;2.50;99.90;;;;;;4161629;28;20043;-50
2021/12/21 04:26:49;;;;;;;35.03;31.83;;;2.50;99.90;;;;;;4151415;28;20056;-49
2021/12/21 04:28:51;;;;;;;41.85;37.67;;;2.50;99.90;;;;;;4161155;28;20034;-47
2021/12/21 04:30:53;;;;;;;44.55;40.38;;;2.60;99.90;;;;;;4159177;28;20037;-48
2021/12/21 04:32:56;;;;;;;47.63;43.25;;;2.50;99.90;;;;;;4160682;28;20067;-50
2021/12/21 04:34:58;;;;;;;;;;;2.50;99.90;;;;;;4158945;28;20050;-48
2021/12/21 04:37:01;;;;;;;38.90;35.55;;;2.40;99.90;;;;;;4161531;28;20713;-47
2021/12/21 04:39:13;;;;;;;36.00;33.10;;;2.50;99.90;;;;;;4160227;28;20046;-46
2021/12/21 04:41:23;;;;;;;33.60;30.25;;;2.60;99.90;;;;;;4158986;28;20076;-46
2021/12/21 04:43:25;;;;;;;30.42;27.58;;;2.60;99.90;;;;;;4159392;28;20038;-46
2021/12/21 04:45:27;;;;;;;28.58;25.83;;;2.60;99.90;;;;;;4155042;28;20046;-48
2021/12/21 04:47:30;;;;;;;28.02;25.58;;;2.70;99.90;;;;;;4147251;28;20105;-48
2021/12/21 04:49:32;;;;;;;32.92;28.17;;;2.70;99.90;;;;;;4160246;28;20602;-47
2021/12/21 04:51:34;;;;;;;29.63;27.05;;;2.70;99.90;;;;;;4159457;28;20042;-49
2021/12/21 04:53:36;;;;;;;29.42;26.35;;;2.60;99.90;;;;;;4161571;28;20390;-48
2021/12/21 04:55:38;;;;;;;30.98;27.55;;;2.70;99.90;;;;;;4154356;28;20037;-49
2021/12/21 04:57:41;;;;;;;35.45;31.92;;;2.60;99.90;;;;;;4160449;28;20846;-50
2021/12/21 04:59:43;;;;;;;30.42;27.50;;;2.50;99.90;;;;;;4159762;28;20042;-48
2021/12/21 05:01:45;;;;;;;30.50;27.60;;;2.50;99.90;;;;;;4160763;28;20425;-47
2021/12/21 05:03:47;;;;;;;30.17;27.15;;;2.50;99.90;;;;;;4162855;28;20037;-49
2021/12/21 05:05:50;;;;;;;30.73;27.92;;;2.60;99.90;;;;;;4163275;28;20049;-47
2021/12/21 05:08:05;;;;;;;32.13;28.85;;;2.60;99.90;;;;;;4162858;28;20045;-46
2021/12/21 05:10:10;;;;;;;31.83;28.77;;;2.60;99.90;;;;;;4163901;28;20647;-49
2021/12/21 05:12:13;;;;;;;30.98;28.00;;;2.50;99.90;;;;;;4163579;28;20054;-48
2021/12/21 05:14:15;;;;;;;34.38;31.33;;;2.50;99.90;;;;;;4162123;28;20555;-48
2021/12/21 05:16:17;;;;;;;34.50;31.15;;;2.50;99.90;;;;;;4161553;28;20130;-47
2021/12/21 05:18:22;;;;;;;28.60;25.77;;;2.50;99.90;;;;;;4162307;28;20374;-48
2021/12/21 05:20:24;;;;;;;27.10;24.52;;;2.60;99.90;;;;;;4161577;28;20429;-49
2021/12/21 05:22:29;;;;;;;24.27;22.05;;;2.60;99.90;;;;;;4164634;28;20049;-47
2021/12/21 05:24:32;;;;;;;28.10;23.40;;;2.70;99.90;;;;;;4159642;28;20041;-48
2021/12/21 05:26:34;;;;;;;25.30;22.33;;;2.70;99.90;;;;;;4164113;28;20051;-49
2021/12/21 05:28:36;;;;;;;23.40;21.27;;;2.70;99.90;;;;;;4163218;28;20460;-48
2021/12/21 05:30:40;;;;;;;36.15;31.70;;;2.80;99.90;;;;;;4163035;28;20042;-50
2021/12/21 05:32:42;;;;;;;34.70;30.30;;;2.70;99.90;;;;;;4163849;28;20118;-49
2021/12/21 05:34:44;;;;;;;36.95;33.30;;;2.70;99.90;;;;;;4162239;28;20678;-48
2021/12/21 05:36:47;;;;;;;33.00;29.98;;;2.50;99.90;;;;;;4163992;28;20052;-48
2021/12/21 05:38:54;;;;;;;33.40;30.58;;;2.60;99.90;;;;;;4163002;28;20569;-49
2021/12/21 05:41:00;;;;;;;30.15;27.27;;;2.70;99.90;;;;;;4163651;28;20062;-48
2021/12/21 05:43:03;;;;;;;30.80;28.10;;;2.70;99.90;;;;;;4162986;28;20042;-49
2021/12/21 05:45:06;;;;;;;21.55;19.55;;;2.80;99.90;;;;;;4163500;28;20037;-48
2021/12/21 05:47:09;;;;;;;33.15;30.02;;;2.90;99.90;;;;;;4162367;28;20079;-48
2021/12/21 05:49:11;;;;;;;33.10;30.23;;;2.90;99.90;;;;;;4160047;28;20129;-49
2021/12/21 05:51:14;;;;;;;41.60;37.75;;;2.80;99.90;;;;;;4161057;28;20584;-51
2021/12/21 05:53:17;;;;;;;42.53;37.92;;;2.70;99.90;;;;;;4161639;28;20510;-51
2021/12/21 05:55:20;;;;;;;41.42;37.75;;;2.60;99.90;;;;;;4160455;28;20046;-47
2021/12/21 05:57:23;;;;;;;36.42;33.15;;;2.60;99.90;;;;;;4164151;28;20044;-50
2021/12/21 05:59:25;;;;;;;33.88;31.17;;;2.70;99.90;;;;;;4160904;28;20060;-47
2021/12/21 06:01:27;;;;;;;35.03;31.88;;;2.80;99.90;;;;;;4147336;28;20105;-50
2021/12/21 06:03:29;;;;;;;36.17;32.95;;;2.80;99.90;;;;;;4160611;28;20040;-48
2021/12/21 06:05:31;;;;;;;34.10;30.63;;;2.90;99.90;;;;;;4155698;28;20117;-47
2021/12/21 06:07:34;;;;;;;39.53;35.67;;;2.90;99.90;;;;;;4159992;28;20053;-51
2021/12/21 06:09:36;;;;;;;38.45;34.88;;;2.80;99.90;;;;;;4162048;28;20037;-49
2021/12/21 06:11:46;;;;;;;40.00;35.85;;;2.70;99.90;;;;;;4160335;28;20091;-48
2021/12/21 06:14:09;;;;;;;32.25;28.88;;;2.70;99.90;;;;;;4162615;28;20152;-48
2021/12/21 06:27:24;;;;;;;59.10;52.72;;;2.60;99.90;;;;;;4161734;28;20033;-48
2021/12/21 06:29:27;;;;;;;56.90;50.05;;;2.60;99.90;;;;;;4165334;28;20152;-48
2021/12/21 06:31:29;;;;;;;52.45;46.42;;;2.60;99.90;;;;;;4159551;28;20117;-48
2021/12/21 06:33:32;;;;;;;51.67;46.97;;;2.60;99.90;;;;;;4165097;28;20041;-46
2021/12/21 06:35:35;;;;;;;42.00;37.85;;;2.70;99.90;;;;;;4161673;28;20092;-49
2021/12/21 06:37:38;;;;;;;37.80;34.75;;;2.90;99.90;;;;;;4163247;28;20033;-50
2021/12/21 06:39:40;;;;;;;35.25;32.78;;;3.10;99.90;;;;;;4161208;28;20060;-47
2021/12/21 06:41:43;;;;;;;32.53;30.30;;;3.20;99.90;;;;;;4163511;28;20397;-48
2021/12/21 06:43:46;;;;;;;34.15;31.30;;;3.30;99.90;;;;;;4161697;28;20044;-50
2021/12/21 06:52:35;;;;;;;57.60;51.83;;;2.70;99.90;;;;;;4160348;28;20116;-51
2021/12/21 06:54:37;;;;;;;59.38;53.47;;;2.60;99.90;;;;;;4164009;28;20526;-50
2021/12/21 06:56:39;;;;;;;59.15;53.20;;;2.50;99.90;;;;;;4161218;28;20065;-47
2021/12/21 06:58:42;;;;;;;74.97;65.10;;;2.50;99.90;;;;;;4163290;28;20045;-51
2021/12/21 07:00:44;;;;;;;61.80;55.97;;;2.50;99.90;;;;;;4155092;28;20111;-51
2021/12/21 07:02:48;;;;;;;54.90;49.95;;;2.50;99.90;;;;;;4162243;28;20544;-49
2021/12/21 07:04:50;;;;;;;48.00;44.42;;;2.50;99.90;;;;;;4161033;28;20045;-47
2021/12/21 07:06:54;;;;;;;49.53;44.85;;;2.70;99.90;;;;;;4162731;28;20041;-47
2021/12/21 07:09:11;;;;;;;47.17;43.63;;;2.70;99.90;;;;;;4160114;28;20046;-48
2021/12/21 07:20:05;;;;;;;47.45;43.17;;;2.70;99.90;;;;;;4162456;28;20041;-48
2021/12/21 07:22:08;;;;;;;47.88;43.53;;;2.80;99.90;;;;;;4161770;28;20037;-49
2021/12/21 07:24:10;;;;;;;47.67;43.15;;;2.80;99.90;;;;;;4147026;28;20060;-50
2021/12/21 07:26:12;;;;;;;49.22;44.40;;;2.90;99.90;;;;;;4161109;28;20089;-49
2021/12/21 07:28:14;;;;;;;51.72;46.92;;;2.90;99.90;;;;;;4157709;28;20426;-49
2021/12/21 07:30:16;;;;;;;50.05;44.83;;;3.00;99.90;;;;;;4160163;28;20037;-49
2021/12/21 07:32:18;;;;;;;56.35;50.70;;;3.00;99.90;;;;;;4162682;28;20115;-49
2021/12/21 07:34:21;;;;;;;53.42;48.15;;;3.10;99.90;;;;;;4160237;28;20064;-50
2021/12/21 07:36:23;;;;;;;47.10;42.00;;;3.00;99.90;;;;;;4163527;28;20382;-49
2021/12/21 07:38:30;;;;;;;47.17;41.13;;;3.00;99.90;;;;;;4161022;28;20575;-48
2021/12/21 07:40:32;;;;;;;54.63;44.03;;;3.00;99.90;;;;;;4160433;28;20103;-48
2021/12/21 07:42:34;;;;;;;22.23;20.77;;;3.00;99.90;;;;;;4158034;28;20091;-46
2021/12/21 07:44:36;;;;;;;28.98;26.42;;;3.10;99.90;;;;;;4155230;28;20048;-48
2021/12/21 07:46:43;;;;;;;34.45;31.15;;;3.30;99.90;;;;;;4154942;28;20041;-48
2021/12/21 07:48:46;;;;;;;35.53;32.20;;;3.40;99.90;;;;;;4160478;28;20037;-50
2021/12/21 07:50:51;;;;;;;26.70;23.98;;;3.40;99.90;;;;;;4158804;28;20041;-49
2021/12/21 07:52:55;;;;;;;25.92;23.63;;;3.50;99.90;;;;;;4163370;28;20053;-48
2021/12/21 07:54:58;;;;;;;46.05;39.28;;;3.50;99.90;;;;;;4159272;28;20052;-50
2021/12/21 07:57:00;;;;;;;49.28;42.75;;;3.40;99.90;;;;;;4163356;28;20524;-48
2021/12/21 07:59:04;;;;;;;54.70;48.70;;;3.30;99.90;;;;;;4161425;28;20045;-51
2021/12/21 08:01:07;;;;;;;58.08;49.83;;;3.20;99.90;;;;;;4153631;28;20059;-49
2021/12/21 08:03:09;;;;;;;47.83;43.13;;;3.20;99.90;;;;;;4159441;28;20046;-49
2021/12/21 08:05:12;;;;;;;56.05;50.15;;;3.20;99.90;;;;;;4158443;28;20076;-48
2021/12/21 08:07:18;;;;;;;;;;;3.20;99.90;;;;;;4155172;28;20069;-50
2021/12/21 08:09:21;;;;;;;46.60;42.08;;;3.10;99.90;;;;;;4148708;28;19921;-49
2021/12/21 08:12:10;;;;;;;44.08;39.92;;;3.10;99.90;;;;;;4156198;28;20045;-49
2021/12/21 08:13:49;;;;;;;39.38;36.20;;;3.10;99.90;;;;;;4148637;28;20049;-49
2021/12/21 08:15:51;;;;;;;34.97;32.17;;;3.20;99.90;;;;;;4158149;28;20033;-50
2021/12/21 08:17:53;;;;;;;37.67;34.03;;;3.30;99.90;;;;;;4161144;28;20088;-51
2021/12/21 08:19:55;;;;;;;29.15;27.73;;;3.40;99.90;;;;;;4157862;28;20402;-49
2021/12/21 08:22:02;;;;;;;19.92;18.63;;;3.50;99.90;;;;;;4160579;28;20038;-51
2021/12/21 08:24:04;;;;;;;26.30;24.38;;;3.70;99.90;;;;;;4158868;28;20095;-47
2021/12/21 08:26:08;;;;;;;24.02;22.17;;;3.80;99.90;;;;;;4162790;28;20049;-50
2021/12/21 08:28:10;;;;;;;;;;;3.90;99.90;;;;;;4160853;28;20041;-48
2021/12/21 08:30:12;;;;;;;32.75;29.35;;;4.00;99.90;;;;;;4162996;28;19921;-51
2021/12/21 08:32:14;;;;;;;45.97;41.22;;;3.90;99.90;;;;;;4160199;28;20045;-50
2021/12/21 08:34:17;;;;;;;54.50;46.15;;;3.70;99.90;;;;;;4160760;28;20366;-47
2021/12/21 08:36:19;;;;;;;53.92;47.10;;;3.60;99.90;;;;;;4158604;28;20029;-47
2021/12/21 08:38:23;;;;;;;46.78;42.10;;;3.60;99.90;;;;;;4148632;28;20565;-47
2021/12/21 08:40:26;;;;;;;44.45;40.03;;;3.60;99.90;;;;;;4157276;28;20045;-50
2021/12/21 08:42:28;;;;;;;45.47;39.92;;;3.50;99.90;;;;;;4163279;28;20571;-51
2021/12/21 08:44:31;;;;;;;52.05;46.08;;;3.60;99.90;;;;;;4158549;28;20048;-50
2021/12/21 08:46:33;;;;;;;50.17;40.17;;;3.70;99.90;;;;;;4151097;28;20073;-51
2021/12/21 08:48:35;;;;;;;55.15;46.25;;;3.70;99.90;;;;;;4154674;28;20116;-48
2021/12/21 08:50:37;;;;;;;;;;;3.60;99.90;;;;;;4160022;28;20092;-50
2021/12/21 08:52:40;;;;;;;56.63;45.95;;;3.60;99.90;;;;;;4155989;28;19932;-49
2021/12/21 08:54:43;;;;;;;44.45;38.22;;;3.70;99.90;;;;;;4160293;28;20477;-50
2021/12/21 08:56:46;;;;;;;42.97;38.17;;;3.70;99.90;;;;;;4160385;28;20037;-49
2021/12/21 08:58:49;;;;;;;48.28;40.13;;;3.70;99.90;;;;;;4162966;28;20509;-47
2021/12/21 09:00:52;;;;;;;45.80;39.60;;;3.80;99.90;;;;;;4159136;28;20041;-50
2021/12/21 09:02:55;;;;;;;49.75;44.75;;;3.80;99.90;;;;;;4161163;28;20092;-49
2021/12/21 09:04:57;;;;;;;48.20;43.33;;;3.80;99.90;;;;;;4156084;28;20329;-50
2021/12/21 09:06:59;;;;;;;49.17;40.28;;;3.80;99.90;;;;;;4155526;28;20415;-49
2021/12/21 09:09:01;;;;;;;54.65;38.95;;;3.90;99.90;;;;;;4152660;28;20099;-51
2021/12/21 09:11:05;;;;;;;55.47;42.30;;;3.90;99.90;;;;;;4161646;28;20038;-48
2021/12/21 09:13:09;;;;;;;47.13;40.38;;;4.00;99.90;;;;;;4158095;28;20044;-49
2021/12/21 09:15:12;;;;;;;32.28;28.05;;;4.10;99.90;;;;;;4161493;28;20464;-49
2021/12/21 09:17:14;;;;;;;45.50;34.20;;;4.10;99.90;;;;;;4154540;28;20652;-48
2021/12/21 09:19:17;;;;;;;57.75;37.70;;;4.20;99.90;;;;;;4162127;28;20112;-48
2021/12/21 09:21:32;;;;;;;25.60;22.17;;;4.20;99.90;;;;;;4154519;28;20045;-49
2021/12/21 09:23:35;;;;;;;38.95;30.17;;;4.30;99.90;;;;;;4161796;28;20069;-49
2021/12/21 09:25:37;;;;;;;38.00;29.27;;;4.20;99.90;;;;;;4159128;28;20034;-47
2021/12/21 09:27:39;;;;;;;34.67;30.70;;;4.40;99.90;;;;;;4161724;28;20068;-49
2021/12/21 09:29:42;;;;;;;;;;;4.40;99.90;;;;;;4158755;28;20478;-50
2021/12/21 09:31:44;;;;;;;35.85;31.92;;;4.50;99.90;;;;;;4162616;28;19921;-50
2021/12/21 09:33:46;;;;;;;35.40;29.85;;;4.50;99.90;;;;;;4161483;28;20041;-47
2021/12/21 09:35:49;;;;;;;33.75;30.33;;;4.50;99.90;;;;;;4155431;28;20048;-47
2021/12/21 09:37:52;;;;;;;43.67;36.30;;;4.50;99.90;;;;;;4147759;28;20553;-48
2021/12/21 09:39:55;;;;;;;36.83;32.72;;;4.60;99.90;;;;;;4161442;28;20037;-47
2021/12/21 09:41:58;;;;;;;35.15;29.05;;;4.60;99.90;;;;;;4160165;28;20580;-44
2021/12/21 09:44:01;;;;;;;35.28;31.33;;;4.60;99.90;;;;;;4161331;28;20433;-45
2021/12/21 09:46:04;;;;;;;35.17;31.15;;;4.60;99.90;;;;;;4153167;28;20038;-45
2021/12/21 09:48:07;;;;;;;31.25;28.20;;;4.60;99.90;;;;;;4163181;28;20289;-44
2021/12/21 09:50:12;;;;;;;30.23;25.35;;;4.70;99.90;;;;;;4162322;28;20042;-44
2021/12/21 09:52:18;;;;;;;33.33;27.98;;;4.80;99.90;;;;;;4165134;28;20379;-44
2021/12/21 09:54:21;;;;;;;33.53;27.98;;;4.90;99.90;;;;;;4163636;28;20048;-43
2021/12/21 09:56:23;;;;;;;;;;;5.00;99.90;;;;;;4165841;28;20033;-45
2021/12/21 09:58:25;;;;;;;40.70;33.97;;;5.00;99.90;;;;;;4163430;28;19976;-47
2021/12/21 10:00:31;;;;;;;39.53;31.38;;;5.00;99.90;;;;;;4159440;28;20068;-46
2021/12/21 10:02:35;;;;;;;32.63;28.00;;;5.00;99.90;;;;;;4158873;28;20069;-47
2021/12/21 10:04:47;;;;;;;42.67;32.40;;;5.00;99.90;;;;;;4162892;28;20063;-46
2021/12/21 10:06:52;;;;;;;33.22;28.55;;;5.00;99.90;;;;;;4159257;28;20092;-45
2021/12/21 10:09:08;;;;;;;36.28;26.70;;;5.00;99.90;;;;;;4166132;28;20545;-45
2021/12/21 10:11:41;;;;;;;30.75;27.58;;;5.00;99.90;;;;;;4157506;28;20041;-46
2021/12/21 10:13:44;;;;;;;36.90;29.05;;;5.00;99.90;;;;;;4159506;28;20140;-47
2021/12/21 10:15:51;;;;;;;34.92;27.60;;;5.10;99.90;;;;;;4161184;28;20045;-49
2021/12/21 10:17:58;;;;;;;26.70;23.95;;;5.10;99.90;;;;;;4154070;28;20037;-46
2021/12/21 10:20:02;;;;;;;27.88;24.92;;;5.10;99.90;;;;;;4153655;28;20486;-46
2021/12/21 10:22:15;;;;;;;26.45;23.67;;;5.10;99.90;;;;;;4160714;28;20053;-44
2021/12/21 10:24:28;;;;;;;28.85;24.40;;;5.10;99.90;;;;;;4158122;28;20032;-47
2021/12/21 10:26:30;;;;;;;;;;;5.10;99.90;;;;;;4160113;28;20076;-46
2021/12/21 10:28:36;;;;;;;21.90;19.65;;;5.10;99.90;;;;;;4158249;28;20427;-45
2021/12/21 10:30:53;;;;;;;23.27;20.67;;;5.20;99.90;;;;;;4158249;28;20425;-48
2021/12/21 10:32:55;;;;;;;33.15;25.90;;;5.20;99.90;;;;;;4161221;28;20563;-46
2021/12/21 10:35:06;;;;;;;39.40;30.75;;;5.30;99.90;;;;;;4165386;28;20034;-46
2021/12/21 10:37:20;;;;;;;40.00;32.50;;;5.30;99.90;;;;;;4162238;28;20045;-47
2021/12/21 10:39:26;;;;;;;35.53;28.13;;;5.40;99.90;;;;;;4163451;28;20046;-48
2021/12/21 10:41:43;;;;;;;28.75;25.52;;;5.30;99.90;;;;;;4162218;28;20421;-45
2021/12/21 10:44:03;;;;;;;31.60;25.15;;;5.40;99.90;;;;;;4163288;28;20095;-48
2021/12/21 10:46:07;;;;;;;30.48;25.85;;;5.40;99.90;;;;;;4160789;28;20045;-45
2021/12/21 10:48:16;;;;;;;37.67;27.63;;;5.50;99.90;;;;;;4149177;28;20041;-44
2021/12/21 10:50:19;;;;;;;36.20;29.02;;;5.50;99.90;;;;;;4160332;28;20033;-46
2021/12/21 10:52:22;;;;;;;27.20;23.65;;;5.50;99.90;;;;;;4164311;28;20038;-45
2021/12/21 10:54:33;;;;;;;27.10;24.45;;;5.50;99.90;;;;;;4161796;28;20041;-47
2021/12/21 10:56:35;;;;;;;30.23;25.77;;;5.50;99.90;;;;;;4148541;28;20526;-48
2021/12/21 10:58:40;;;;;;;34.20;27.75;;;5.60;99.90;;;;;;4156586;28;20128;-47
2021/12/21 11:01:01;;;;;;;50.75;36.47;;;5.60;99.90;;;;;;4164114;28;20490;-47
2021/12/21 11:03:03;;;;;;;43.03;33.53;;;5.70;99.90;;;;;;4160985;28;20053;-45
2021/12/21 11:05:12;;;;;;;46.00;32.78;;;5.70;99.90;;;;;;4147586;28;20125;-47
2021/12/21 11:07:30;;;;;;;45.08;37.42;;;5.70;99.90;;;;;;4161856;28;20096;-47
2021/12/21 11:09:34;;;;;;;44.95;33.60;;;5.80;99.90;;;;;;4147235;28;20042;-45
2021/12/21 11:11:44;;;;;;;39.70;31.98;;;5.80;99.90;;;;;;4162274;28;20033;-47
2021/12/21 11:13:57;;;;;;;55.72;32.72;;;5.80;99.90;;;;;;4157415;28;20495;-48
2021/12/21 11:16:03;;;;;;;40.42;33.53;;;5.80;99.90;;;;;;4163145;28;20049;-47
2021/12/21 11:18:13;;;;;;;41.30;31.65;;;5.90;99.90;;;;;;4157258;28;20468;-46
2021/12/21 11:20:16;;;;;;;37.22;30.83;;;5.90;99.90;;;;;;4163161;28;20385;-44
2021/12/21 11:22:21;;;;;;;35.05;29.08;;;5.90;99.90;;;;;;4149478;28;20092;-46
2021/12/21 11:24:26;;;;;;;29.25;26.15;;;5.80;99.90;;;;;;4162452;28;20037;-48
2021/12/21 11:26:30;;;;;;;29.48;25.83;;;5.80;99.90;;;;;;4162261;28;20025;-45
2021/12/21 11:28:36;;;;;;;29.00;25.13;;;5.80;99.90;;;;;;4162090;28;20087;-47
2021/12/21 11:30:40;;;;;;;34.28;26.20;;;5.90;99.90;;;;;;4159503;28;20504;-46
2021/12/21 11:32:45;;;;;;;42.08;31.13;;;5.90;99.90;;;;;;4163461;28;20033;-45
2021/12/21 11:37:20;;;;;;;51.58;34.53;;;6.00;99.90;;;;;;4151416;28;20073;-45
2021/12/21 11:37:31;;;;;;;39.63;31.70;;;6.00;99.90;;;;;;4162999;28;20076;-48
2021/12/21 11:39:38;;;;;;;35.53;30.70;;;6.00;99.90;;;;;;4161489;28;20038;-50
2021/12/21 11:41:43;;;;;;;42.28;32.55;;;6.10;99.90;;;;;;4158847;28;20179;-48
2021/12/21 11:43:57;;;;;;;41.65;32.97;;;6.10;99.90;;;;;;4155771;28;20046;-51
2021/12/21 11:46:06;;;;;;;40.58;31.75;;;6.10;99.90;;;;;;4160622;28;20108;-48
2021/12/21 11:48:11;;;;;;;46.97;34.75;;;6.20;99.90;;;;;;4159863;28;20041;-50
2021/12/21 11:50:14;;;;;;;36.88;31.73;;;6.20;99.90;;;;;;4158894;28;20069;-50